Renton, WA (98055)

10:23 PM PST on December 19, 2014 (GMT -0800)
Victoria Park | Change Station
CLOSE
Current Station
Personal Weather Station
Location: Renton, WA
Elevation: 226 ft
Nearby Weather Stations
Active Advisory: Areal Flood Watch Active Notice: Record Report

Elev 226 ft 47.46 °N, 122.21 °W | Updated 7 minutes ago

Partly Cloudy
Partly Cloudy
46.6 °F
Feels Like 47 °F
N
0.0
Wind Variable Wind from East
Gusts 3.0 mph

Today
High -- | Low -- °F
--% Chance of Precip.
Yesterday
High -- | Low -- °F
Precip. -- in
7:52 AM 4:19 PM
Waning Crescent, 4% visible
Pressure 29.89 in
Visibility 10.0 miles
Clouds Few 10000 ft
Windchill 47 °F
Dew Point 39 °F
Humidity 75%
Rainfall 0.13 in
Snow Depth Not available.
UV 0 out of 12
Pollen .40 out of 12
Air Quality Not available.
Flu Activity Not available.
METAR KRNT 200553Z AUTO 12005KT 10SM FEW100 08/03 A2987 RMK AO2 SLP120 T00780033 10106 20078 58027

More Conditions Fewer Conditions

Pressure 29.89 in
Visibility 10.0 miles
Clouds Few 10000 ft
Windchill 47 °F
Dew Point 39 °F
Humidity 75%
Rainfall 0.13 in
Snow Depth Not available.
UV 0 out of 12
Pollen .40 out of 12
Air Quality Not available.
Flu Activity Not available.
METAR KRNT 200553Z AUTO 12005KT 10SM FEW100 08/03 A2987 RMK AO2 SLP120 T00780033 10106 20078 58027

More Conditions Fewer Conditions

10-Day Weather Forecast

Almanac

Astronomy

Dec. 19, 2014 Rise Set
Actual Time
Civil Twilight
Nautical Twilight
Astronomical Twilight
Moon
Length of Visible Light
Length of Day
Tomorrow will be .
, % of the Moon is Illuminated

Today's Extremes

State Highs State Lows

Community

WunderPhotos

Upload Photos

1,779,144 photos uploaded!

WunderBlogs® & News

Nearby

Air Quality

  Air Quality AQ Index Pollutant
Not available.

Snow Depth

Station Depth Elevation

Earthquake Activity

City Distance Mag. Time & Date
Minimum magnitude displayed is 2.5.

Coastal Water Temperatures

Place Temperature

Nearby Weather Stations